Time;durP1;ratioP1;P1;durP2;ratioP2;P2;SDS_P1;SDS_P2;PMS_P1;PMS_P2;Temp;Humidity;BMP_temperature;BMP_pressure;BME280_temperature;BME280_humidity;BME280_pressure;Samples;Min_cycle;Max_cycle;Signal;HPM_P1;HPM_P2
2024/03/28 00:02:18;;;;;;;1.00;1.00;;;9.90;89.80;;;;;;5053265;28;20052;-80
2024/03/28 00:04:44;;;;;;;0.95;0.90;;;9.80;89.70;;;;;;5037071;28;20056;-80
2024/03/28 00:07:10;;;;;;;1.33;1.08;;;9.60;90.20;;;;;;5037204;28;20503;-80
2024/03/28 00:09:36;;;;;;;0.80;0.80;;;9.50;90.60;;;;;;5053099;28;20053;-78
2024/03/28 00:12:01;;;;;;;0.80;0.80;;;9.40;90.80;;;;;;5056649;28;20048;-78
2024/03/28 00:14:27;;;;;;;1.00;1.00;;;9.30;90.80;;;;;;5063882;28;20052;-79
2024/03/28 00:16:53;;;;;;;2.25;0.90;;;9.20;91.10;;;;;;5061282;28;20044;-80
2024/03/28 00:19:19;;;;;;;1.20;1.10;;;9.10;91.60;;;;;;5040772;28;20067;-79
2024/03/28 00:21:46;;;;;;;1.42;1.13;;;9.10;91.80;;;;;;5057623;28;20055;-80
2024/03/28 00:24:12;;;;;;;1.52;1.42;;;9.00;92.60;;;;;;5053959;28;20531;-80
2024/03/28 00:26:38;;;;;;;1.50;1.40;;;8.90;93.10;;;;;;5057256;28;20131;-79
2024/03/28 00:29:04;;;;;;;1.52;1.42;;;8.90;93.60;;;;;;5040224;28;20465;-79
2024/03/28 00:31:31;;;;;;;1.50;1.40;;;8.80;93.90;;;;;;5037176;28;20127;-78
2024/03/28 00:33:57;;;;;;;1.65;1.55;;;8.70;94.50;;;;;;5040153;28;20052;-79
2024/03/28 00:36:26;;;;;;;1.50;1.40;;;8.60;94.80;;;;;;5040222;28;20060;-79
2024/03/28 00:38:52;;;;;;;1.48;1.38;;;8.50;94.90;;;;;;5061585;28;20053;-79
2024/03/28 00:41:18;;;;;;;1.10;1.10;;;8.40;95.30;;;;;;5040490;28;20070;-80
2024/03/28 00:43:44;;;;;;;1.50;1.40;;;8.40;95.70;;;;;;5056965;28;20048;-79
2024/03/28 00:46:11;;;;;;;2.75;1.60;;;8.30;95.80;;;;;;5056503;28;20052;-80
2024/03/28 00:48:36;;;;;;;1.50;1.40;;;8.20;96.10;;;;;;5040239;28;20385;-79
2024/03/28 00:51:03;;;;;;;1.10;1.08;;;8.20;96.30;;;;;;5039927;28;20109;-79
2024/03/28 00:53:31;;;;;;;1.38;1.20;;;8.10;96.60;;;;;;5040309;28;20052;-80
2024/03/28 00:56:00;;;;;;;0.90;0.90;;;8.10;96.80;;;;;;5055447;28;20056;-80
2024/03/28 00:58:26;;;;;;;1.15;1.05;;;8.00;97.20;;;;;;5056390;28;20078;-79
2024/03/28 01:00:52;;;;;;;1.02;0.98;;;8.00;97.20;;;;;;5053709;28;20052;-80
2024/03/28 01:03:18;;;;;;;1.13;1.08;;;7.90;96.90;;;;;;5056238;28;20052;-79
2024/03/28 01:05:44;;;;;;;1.02;0.80;;;8.00;97.60;;;;;;5062157;28;20052;-80
2024/03/28 01:08:10;;;;;;;0.80;0.80;;;7.90;97.80;;;;;;5055607;28;20088;-80
2024/03/28 01:10:37;;;;;;;0.70;0.70;;;7.90;97.80;;;;;;5039379;28;20071;-79
2024/03/28 01:13:04;;;;;;;0.80;0.80;;;7.90;98.40;;;;;;5061139;28;20052;-79
2024/03/28 01:15:31;;;;;;;0.80;0.80;;;7.90;98.10;;;;;;5056148;28;20040;-78
2024/03/28 01:17:57;;;;;;;0.70;0.70;;;8.00;98.40;;;;;;5039763;28;20049;-79
2024/03/28 01:20:24;;;;;;;0.90;0.90;;;7.90;98.50;;;;;;5053486;28;20469;-79
2024/03/28 01:22:50;;;;;;;0.90;0.90;;;8.00;98.80;;;;;;5038517;28;20063;-80
2024/03/28 01:25:18;;;;;;;2.35;0.90;;;8.00;99.10;;;;;;5054412;28;20055;-79
2024/03/28 01:27:46;;;;;;;0.70;0.70;;;8.00;99.10;;;;;;5062993;28;20064;-79
2024/03/28 01:30:13;;;;;;;0.80;0.80;;;8.00;99.60;;;;;;5055764;28;20385;-79
2024/03/28 01:32:41;;;;;;;0.95;0.88;;;8.00;99.70;;;;;;5055849;28;20044;-80
2024/03/28 01:35:07;;;;;;;0.75;0.75;;;8.00;99.70;;;;;;5052690;28;20128;-79
2024/03/28 01:37:36;;;;;;;0.80;0.75;;;8.00;98.90;;;;;;5055529;28;20056;-80
2024/03/28 01:40:03;;;;;;;0.60;0.60;;;8.00;99.20;;;;;;5055900;28;20061;-80
2024/03/28 01:42:29;;;;;;;0.70;0.70;;;8.00;99.40;;;;;;5055772;28;20056;-79
2024/03/28 01:44:57;;;;;;;0.80;0.80;;;8.10;98.70;;;;;;5070160;28;20373;-80
2024/03/28 01:47:23;;;;;;;0.70;0.70;;;8.00;98.90;;;;;;5039285;28;20119;-79
2024/03/28 01:49:50;;;;;;;1.00;0.90;;;8.10;98.90;;;;;;5055589;28;20384;-79
2024/03/28 01:52:19;;;;;;;0.40;0.40;;;8.10;99.10;;;;;;5039065;28;20075;-79
2024/03/28 01:54:47;;;;;;;0.50;0.50;;;8.10;98.50;;;;;;5055854;28;20057;-80
2024/03/28 01:57:16;;;;;;;0.55;0.55;;;8.20;98.10;;;;;;5038979;28;20071;-79
2024/03/28 01:59:42;;;;;;;0.40;0.40;;;8.20;97.90;;;;;;5055425;28;20065;-79
2024/03/28 02:02:09;;;;;;;0.43;0.43;;;8.20;97.00;;;;;;5055118;28;20052;-79
2024/03/28 02:04:35;;;;;;;0.40;0.40;;;8.20;96.90;;;;;;5055226;28;20056;-79
2024/03/28 02:07:01;;;;;;;0.50;0.50;;;8.20;97.20;;;;;;5038854;28;20443;-79
2024/03/28 02:09:28;;;;;;;0.40;0.40;;;8.20;96.80;;;;;;5036295;28;20103;-80
2024/03/28 02:11:55;;;;;;;0.50;0.50;;;8.20;96.90;;;;;;5038171;28;20055;-80
2024/03/28 02:14:23;;;;;;;0.50;0.50;;;8.10;97.00;;;;;;5038376;28;20535;-79
2024/03/28 02:16:51;;;;;;;0.60;0.60;;;8.10;97.10;;;;;;5038807;28;20053;-79
2024/03/28 02:19:19;;;;;;;0.50;0.50;;;8.10;97.10;;;;;;5038648;28;20064;-80
2024/03/28 02:21:46;;;;;;;0.40;0.40;;;8.10;97.00;;;;;;5032796;28;20056;-79
2024/03/28 02:24:13;;;;;;;0.43;0.43;;;8.10;96.50;;;;;;5038453;28;20130;-79
2024/03/28 02:26:39;;;;;;;0.50;0.50;;;8.10;96.50;;;;;;5054901;28;20377;-79
2024/03/28 02:29:05;;;;;;;0.57;0.57;;;8.10;95.50;;;;;;5038303;28;20056;-80
2024/03/28 02:31:34;;;;;;;0.77;0.50;;;8.10;95.20;;;;;;5084670;28;20063;-79
2024/03/28 02:34:00;;;;;;;0.50;0.50;;;8.10;94.80;;;;;;5038214;28;20100;-79
2024/03/28 02:36:26;;;;;;;0.50;0.50;;;8.10;95.00;;;;;;5038127;28;20096;-79
2024/03/28 02:38:52;;;;;;;0.47;0.47;;;8.10;95.10;;;;;;5054380;28;20076;-79
2024/03/28 02:41:21;;;;;;;0.57;0.57;;;8.10;94.70;;;;;;5037566;28;20079;-79
2024/03/28 02:43:49;;;;;;;1.83;0.70;;;8.10;94.40;;;;;;5054096;28;20067;-79
2024/03/28 02:46:15;;;;;;;0.40;0.40;;;8.00;94.90;;;;;;5054571;28;20067;-80
2024/03/28 02:48:44;;;;;;;0.65;0.65;;;8.00;95.10;;;;;;5054367;28;20052;-80
2024/03/28 02:51:09;;;;;;;0.70;0.70;;;8.00;94.70;;;;;;5037457;28;20045;-79
2024/03/28 02:53:35;;;;;;;0.73;0.73;;;8.00;95.40;;;;;;5054353;28;20063;-79
2024/03/28 02:56:03;;;;;;;0.45;0.43;;;8.00;95.00;;;;;;5054750;28;20523;-79
2024/03/28 02:58:31;;;;;;;0.60;0.60;;;8.00;94.90;;;;;;5054391;28;20358;-79
2024/03/28 03:01:02;;;;;;;0.50;0.50;;;8.00;95.50;;;;;;5037565;28;20048;-80
2024/03/28 03:03:28;;;;;;;0.63;0.43;;;8.00;95.60;;;;;;5069881;28;20056;-78
2024/03/28 03:05:55;;;;;;;2.25;0.52;;;8.00;95.30;;;;;;5027412;28;20064;-79
2024/03/28 03:08:21;;;;;;;0.60;0.60;;;8.00;95.40;;;;;;5054029;28;20374;-79
2024/03/28 03:10:47;;;;;;;0.50;0.50;;;8.00;95.70;;;;;;5037541;28;20071;-80
2024/03/28 03:13:13;;;;;;;0.50;0.50;;;8.00;95.50;;;;;;5031727;28;20079;-79
2024/03/28 03:15:39;;;;;;;2.80;0.70;;;8.00;95.90;;;;;;5060599;28;20060;-80
2024/03/28 03:18:04;;;;;;;0.60;0.60;;;8.00;95.60;;;;;;5054599;28;20060;-79
2024/03/28 03:20:37;;;;;;;0.50;0.50;;;8.00;95.40;;;;;;5060977;28;20063;-79
2024/03/28 03:23:04;;;;;;;0.82;0.60;;;8.00;95.20;;;;;;5054482;28;20068;-80
2024/03/28 03:25:41;;;;;;;0.52;0.52;;;8.00;95.80;;;;;;5054618;28;20048;-80
2024/03/28 03:36:22;;;;;;;0.68;0.68;;;7.90;95.50;;;;;;5053594;28;20328;-79
2024/03/28 03:38:51;;;;;;;0.60;0.60;;;7.90;96.20;;;;;;5037687;28;20458;-79
2024/03/28 03:41:17;;;;;;;0.75;0.75;;;7.80;97.00;;;;;;5035625;28;20056;-79
2024/03/28 03:43:42;;;;;;;0.60;0.60;;;7.90;97.40;;;;;;5030009;28;20359;-79
2024/03/28 03:46:08;;;;;;;2.15;0.65;;;7.80;98.00;;;;;;5046858;28;20053;-79
2024/03/28 03:48:34;;;;;;;0.50;0.50;;;7.80;98.40;;;;;;5037971;28;20061;-80
2024/03/28 03:51:00;;;;;;;0.60;0.60;;;7.80;99.50;;;;;;5053622;28;20056;-79
2024/03/28 03:53:26;;;;;;;0.60;0.60;;;7.70;99.10;;;;;;5044069;28;20050;-81
2024/03/28 03:55:53;;;;;;;0.70;0.70;;;7.80;99.70;;;;;;5037164;28;20052;-80
2024/03/28 03:58:19;;;;;;;1.27;0.60;;;7.80;99.10;;;;;;5060694;28;20460;-80
2024/03/28 04:00:45;;;;;;;0.60;0.60;;;7.70;99.90;;;;;;5037006;28;20064;-78
2024/03/28 04:03:13;;;;;;;0.68;0.68;;;7.70;99.80;;;;;;5030949;28;20052;-80
2024/03/28 04:05:39;;;;;;;0.82;0.60;;;7.70;99.40;;;;;;5050659;28;20064;-78
2024/03/28 04:08:06;;;;;;;1.10;0.77;;;7.60;99.50;;;;;;5036849;28;20063;-79
2024/03/28 04:10:32;;;;;;;0.88;0.75;;;7.60;99.10;;;;;;5020330;28;20053;-79
2024/03/28 04:12:58;;;;;;;0.80;0.80;;;7.60;99.00;;;;;;5036783;28;20123;-79
2024/03/28 04:15:24;;;;;;;1.15;0.80;;;7.50;99.10;;;;;;5066820;28;20055;-78
2024/03/28 04:17:55;;;;;;;0.75;0.75;;;7.50;99.00;;;;;;5036894;28;20059;-80
2024/03/28 04:20:21;;;;;;;0.70;0.60;;;7.40;99.80;;;;;;5067702;28;20048;-77
2024/03/28 04:22:46;;;;;;;0.75;0.75;;;7.40;99.50;;;;;;5066818;28;20056;-80
2024/03/28 04:25:12;;;;;;;0.70;0.70;;;7.30;99.90;;;;;;5057439;28;20059;-80
2024/03/28 04:27:38;;;;;;;1.02;0.93;;;7.20;99.90;;;;;;5053319;28;20135;-79
2024/03/28 04:30:07;;;;;;;3.42;0.95;;;7.10;99.90;;;;;;5036679;28;20127;-79
2024/03/28 04:32:36;;;;;;;0.90;0.90;;;7.00;99.90;;;;;;5052057;28;20053;-80
2024/03/28 04:35:02;;;;;;;0.90;0.85;;;7.00;99.90;;;;;;5036600;28;20072;-79
2024/03/28 04:37:28;;;;;;;0.98;0.95;;;6.90;99.90;;;;;;5059662;28;20060;-79
2024/03/28 04:39:54;;;;;;;1.10;0.90;;;6.90;99.90;;;;;;5036653;28;20060;-79
2024/03/28 04:42:20;;;;;;;0.80;0.77;;;6.80;99.90;;;;;;5036912;28;20048;-79
2024/03/28 04:44:48;;;;;;;1.13;1.05;;;6.80;99.90;;;;;;5036439;28;20480;-79
2024/03/28 04:47:16;;;;;;;1.10;1.00;;;6.80;99.90;;;;;;5067528;28;20079;-78
2024/03/28 04:49:43;;;;;;;1.35;1.25;;;6.70;99.90;;;;;;5067842;28;20424;-79
2024/03/28 04:52:09;;;;;;;1.33;1.23;;;6.70;99.90;;;;;;5049729;28;20045;-79
2024/03/28 04:54:34;;;;;;;1.58;1.23;;;6.70;99.90;;;;;;5053181;28;20129;-79
2024/03/28 04:57:00;;;;;;;1.65;1.55;;;6.70;99.90;;;;;;5036314;28;20111;-80
2024/03/28 04:59:28;;;;;;;2.38;1.65;;;6.70;99.90;;;;;;5053588;28;20088;-80
2024/03/28 05:01:54;;;;;;;2.30;1.60;;;6.60;99.90;;;;;;5038087;28;20056;-79
2024/03/28 05:04:21;;;;;;;1.67;1.48;;;6.60;99.90;;;;;;5056699;28;20387;-79
2024/03/28 05:06:47;;;;;;;1.73;1.38;;;6.70;99.90;;;;;;5039259;28;20052;-80
2024/03/28 05:09:13;;;;;;;1.90;1.50;;;6.60;99.90;;;;;;5066322;28;20098;-79
2024/03/28 05:11:41;;;;;;;3.88;1.35;;;6.70;99.90;;;;;;5039762;28;20067;-81
2024/03/28 05:14:08;;;;;;;3.55;2.00;;;6.80;99.90;;;;;;5056315;28;20048;-80
2024/03/28 05:16:33;;;;;;;6.28;3.67;;;6.80;99.90;;;;;;5039600;28;20543;-80
2024/03/28 05:18:59;;;;;;;7.68;3.97;;;6.90;99.90;;;;;;5039568;28;20062;-79
2024/03/28 05:21:26;;;;;;;1.60;1.50;;;6.90;99.90;;;;;;5062711;28;20090;-79
2024/03/28 05:23:54;;;;;;;2.00;1.40;;;6.90;99.90;;;;;;5056435;28;20404;-79
2024/03/28 05:26:23;;;;;;;1.92;1.45;;;6.90;99.90;;;;;;5053447;28;20110;-79
2024/03/28 05:28:48;;;;;;;2.03;1.30;;;7.00;99.90;;;;;;5040530;28;20063;-80
2024/03/28 05:31:17;;;;;;;2.88;1.33;;;7.00;99.90;;;;;;5039625;28;20447;-79
2024/03/28 05:33:43;;;;;;;2.05;1.27;;;7.10;99.90;;;;;;5056229;28;20119;-80
2024/03/28 05:36:10;;;;;;;2.33;1.50;;;7.20;99.90;;;;;;5055424;28;20053;-80
2024/03/28 05:38:38;;;;;;;2.20;1.60;;;7.20;99.90;;;;;;5055859;28;20487;-77
2024/03/28 05:41:04;;;;;;;6.85;1.73;;;7.20;99.90;;;;;;5056522;28;20063;-77
2024/03/28 05:43:32;;;;;;;2.55;1.42;;;7.30;99.90;;;;;;5039449;28;20392;-77
2024/03/28 05:45:58;;;;;;;4.20;1.40;;;7.30;99.90;;;;;;5039140;28;20064;-78
2024/03/28 05:48:25;;;;;;;2.30;1.30;;;7.30;99.90;;;;;;5054759;28;20075;-77
2024/03/28 05:50:53;;;;;;;2.38;1.45;;;7.40;99.90;;;;;;5039129;28;20465;-79
2024/03/28 05:53:21;;;;;;;2.25;1.40;;;7.40;99.90;;;;;;5055624;28;20114;-78
2024/03/28 05:55:47;;;;;;;1.60;1.25;;;7.50;99.80;;;;;;5038944;28;20052;-79
2024/03/28 05:58:13;;;;;;;1.52;1.42;;;7.60;99.70;;;;;;5038643;28;20059;-78
2024/03/28 06:00:39;;;;;;;1.80;1.38;;;7.60;99.40;;;;;;5052248;28;20060;-78
2024/03/28 06:03:05;;;;;;;2.25;1.48;;;7.70;98.90;;;;;;5038026;28;20067;-78
2024/03/28 06:05:34;;;;;;;1.73;1.35;;;7.80;99.20;;;;;;5052356;28;20052;-78
2024/03/28 06:08:00;;;;;;;1.40;1.10;;;7.80;99.40;;;;;;5039232;28;20138;-78
2024/03/28 06:10:26;;;;;;;2.15;1.60;;;7.90;99.40;;;;;;5038222;28;20508;-78
2024/03/28 06:12:54;;;;;;;2.38;1.42;;;7.90;99.00;;;;;;5053618;28;20114;-78
2024/03/28 06:15:20;;;;;;;1.67;1.35;;;8.00;99.10;;;;;;5039168;28;20060;-79
2024/03/28 06:17:46;;;;;;;2.10;1.27;;;7.90;99.30;;;;;;5037956;28;20087;-78
2024/03/28 06:20:12;;;;;;;2.78;1.30;;;7.90;99.30;;;;;;5038636;28;20053;-79
2024/03/28 06:22:38;;;;;;;3.33;1.58;;;7.90;99.40;;;;;;5038900;28;20060;-78
2024/03/28 06:25:05;;;;;;;1.95;1.48;;;7.90;98.90;;;;;;5039485;28;20068;-79
2024/03/28 06:27:32;;;;;;;6.18;1.77;;;7.90;99.60;;;;;;5039472;28;20059;-79
2024/03/28 06:29:57;;;;;;;4.88;3.05;;;7.90;99.80;;;;;;5039112;28;20516;-79
2024/03/28 06:32:26;;;;;;;8.18;3.88;;;8.00;99.60;;;;;;5035077;28;20501;-79
2024/03/28 06:34:54;;;;;;;7.40;4.63;;;8.00;99.50;;;;;;5064413;28;20141;-79
2024/03/28 06:37:20;;;;;;;5.90;3.40;;;8.00;99.30;;;;;;5032676;28;20061;-79
2024/03/28 06:39:46;;;;;;;5.13;2.30;;;8.10;99.30;;;;;;5038462;28;20438;-79
2024/03/28 06:42:13;;;;;;;10.65;2.83;;;8.10;99.20;;;;;;5055465;28;20524;-78
2024/03/28 06:44:49;;;;;;;3.00;2.40;;;8.20;99.00;;;;;;5054531;28;20049;-79
2024/03/28 06:47:15;;;;;;;5.00;3.10;;;8.20;98.20;;;;;;5038122;28;20056;-79
2024/03/28 06:49:46;;;;;;;6.35;2.90;;;8.30;97.90;;;;;;5054869;28;20052;-78
2024/03/28 06:52:12;;;;;;;5.22;2.83;;;8.30;97.40;;;;;;5053568;28;20040;-78
2024/03/28 06:54:38;;;;;;;13.60;3.17;;;8.30;97.00;;;;;;5037174;28;20059;-79
2024/03/28 06:57:05;;;;;;;10.57;2.85;;;8.40;97.00;;;;;;5055035;28;20063;-79
2024/03/28 06:59:31;;;;;;;7.45;2.92;;;8.50;97.50;;;;;;5038815;28;20060;-79
2024/03/28 07:01:57;;;;;;;7.00;2.60;;;8.60;97.80;;;;;;5037134;28;20427;-79
2024/03/28 07:04:23;;;;;;;11.52;2.38;;;8.70;98.00;;;;;;5035270;28;20078;-79
2024/03/28 07:06:49;;;;;;;4.70;2.50;;;8.80;97.90;;;;;;5052949;28;20048;-78
2024/03/28 07:09:15;;;;;;;6.25;2.33;;;8.90;97.30;;;;;;5037377;28;20075;-78
2024/03/28 07:11:41;;;;;;;5.97;2.30;;;9.00;96.90;;;;;;5054128;28;20052;-78
2024/03/28 07:14:07;;;;;;;6.55;2.38;;;9.10;96.30;;;;;;5036890;28;20492;-78
2024/03/28 07:16:33;;;;;;;10.25;2.95;;;9.20;96.20;;;;;;5038275;28;20059;-78
2024/03/28 07:18:59;;;;;;;4.78;2.38;;;9.30;96.40;;;;;;5080688;28;20048;-79
2024/03/28 07:21:25;;;;;;;6.85;3.05;;;9.40;96.60;;;;;;5054300;28;20591;-78
2024/03/28 07:23:51;;;;;;;10.40;2.10;;;9.50;96.20;;;;;;5054630;28;20087;-78
2024/03/28 07:26:17;;;;;;;4.18;1.90;;;9.60;95.60;;;;;;5038450;28;20049;-79
2024/03/28 07:28:43;;;;;;;2.88;1.50;;;9.80;95.10;;;;;;5038236;28;20193;-78
2024/03/28 07:31:09;;;;;;;2.67;1.48;;;9.80;95.60;;;;;;5037647;28;20044;-78
2024/03/28 07:33:37;;;;;;;2.63;1.48;;;10.00;95.60;;;;;;5053996;28;20098;-78
2024/03/28 07:36:04;;;;;;;3.53;1.20;;;10.10;95.00;;;;;;5079373;28;20049;-80
2024/03/28 07:38:29;;;;;;;2.08;1.15;;;10.20;94.10;;;;;;5036873;28;20052;-80
2024/03/28 07:41:01;;;;;;;4.22;1.60;;;10.40;93.20;;;;;;5040045;28;20048;-79
2024/03/28 07:43:28;;;;;;;19.33;7.43;;;10.50;93.20;;;;;;5037385;28;20857;-80
2024/03/28 07:46:04;;;;;;;3.13;1.80;;;10.60;93.80;;;;;;5037976;28;20061;-80
2024/03/28 07:48:33;;;;;;;4.63;1.05;;;10.80;93.70;;;;;;5051812;28;20063;-80
2024/03/28 07:51:00;;;;;;;2.35;1.02;;;10.90;93.10;;;;;;5053867;28;20060;-80
2024/03/28 07:53:32;;;;;;;0.80;0.80;;;11.00;92.60;;;;;;5036168;28;20075;-80
2024/03/28 07:55:59;;;;;;;5.05;1.27;;;11.20;92.40;;;;;;5037485;28;20052;-80
2024/03/28 07:58:25;;;;;;;4.90;1.35;;;11.30;91.20;;;;;;5035431;28;20067;-80
2024/03/28 08:00:52;;;;;;;4.97;1.35;;;11.40;90.80;;;;;;5036660;28;20049;-80
2024/03/28 08:03:19;;;;;;;6.03;1.67;;;11.60;90.50;;;;;;5086756;28;20052;-80
2024/03/28 08:05:49;;;;;;;3.78;1.33;;;11.70;89.70;;;;;;5053260;28;20056;-80
2024/03/28 08:08:16;;;;;;;4.28;1.50;;;11.80;88.40;;;;;;5037549;28;20056;-80
2024/03/28 08:10:42;;;;;;;2.55;1.42;;;12.00;87.30;;;;;;5036946;28;20513;-80
2024/03/28 08:13:09;;;;;;;4.82;1.17;;;12.10;87.20;;;;;;5036801;28;20393;-80
2024/03/28 08:15:36;;;;;;;2.63;1.25;;;12.30;87.30;;;;;;5037309;28;20067;-80
2024/03/28 08:18:02;;;;;;;2.80;1.23;;;12.40;84.80;;;;;;5053656;28;20119;-80
2024/03/28 08:20:28;;;;;;;2.10;0.93;;;12.50;81.50;;;;;;5036522;28;20464;-80
2024/03/28 08:22:57;;;;;;;2.00;1.00;;;12.70;81.20;;;;;;5037109;28;20082;-80
2024/03/28 08:25:25;;;;;;;2.10;1.10;;;12.80;79.90;;;;;;5053313;28;20052;-80
2024/03/28 08:27:52;;;;;;;2.60;0.60;;;12.90;80.30;;;;;;5037310;28;20396;-81
2024/03/28 08:30:19;;;;;;;2.17;0.82;;;13.00;79.80;;;;;;5032517;28;20053;-80
2024/03/28 08:32:47;;;;;;;1.27;0.60;;;13.10;80.50;;;;;;5056586;28;20057;-80
2024/03/28 08:35:13;;;;;;;4.63;0.93;;;13.30;78.70;;;;;;5038004;28;20052;-80
2024/03/28 08:37:40;;;;;;;2.65;0.90;;;13.40;79.50;;;;;;5040145;28;20056;-81
2024/03/28 08:40:09;;;;;;;1.63;0.60;;;13.60;77.40;;;;;;5040241;28;20060;-80
2024/03/28 08:42:39;;;;;;;2.45;0.75;;;13.70;77.90;;;;;;5040806;28;20056;-81
2024/03/28 08:45:08;;;;;;;0.65;0.60;;;13.90;77.00;;;;;;5040912;28;20052;-80
2024/03/28 08:47:37;;;;;;;0.85;0.63;;;14.10;77.10;;;;;;5057022;28;20052;-81
2024/03/28 08:50:06;;;;;;;1.50;0.70;;;14.20;76.70;;;;;;5039463;28;20079;-81
2024/03/28 08:52:36;;;;;;;1.27;0.70;;;14.30;75.50;;;;;;5040250;28;20048;-81
2024/03/28 08:55:05;;;;;;;1.67;0.80;;;14.50;72.70;;;;;;5055626;28;20106;-81
2024/03/28 08:57:31;;;;;;;0.80;0.60;;;14.70;73.90;;;;;;5040492;28;20431;-81
2024/03/28 08:59:57;;;;;;;4.15;0.80;;;14.90;73.50;;;;;;5040037;28;20106;-81
2024/03/28 09:02:24;;;;;;;0.77;0.68;;;15.10;71.00;;;;;;5039779;28;20053;-81
2024/03/28 09:04:51;;;;;;;0.60;0.60;;;15.30;71.60;;;;;;5040183;28;20059;-81
2024/03/28 09:07:20;;;;;;;1.15;0.70;;;15.40;70.20;;;;;;5039797;28;20464;-79
2024/03/28 09:09:46;;;;;;;1.45;0.70;;;15.50;70.00;;;;;;5039841;28;20044;-79
2024/03/28 09:12:11;;;;;;;0.93;0.50;;;15.70;71.00;;;;;;5040068;28;20052;-80
2024/03/28 09:14:38;;;;;;;2.13;0.60;;;15.90;68.40;;;;;;5039579;28;20124;-80
2024/03/28 09:17:04;;;;;;;0.60;0.60;;;16.00;66.90;;;;;;5039207;28;20479;-80
2024/03/28 09:19:31;;;;;;;2.17;0.50;;;16.30;65.20;;;;;;5040398;28;20392;-79
2024/03/28 09:21:56;;;;;;;0.98;0.60;;;16.50;65.50;;;;;;5053952;28;20068;-80
2024/03/28 09:24:27;;;;;;;1.42;0.47;;;16.70;66.70;;;;;;5055975;28;20052;-80
2024/03/28 09:26:54;;;;;;;7.07;0.88;;;16.90;64.30;;;;;;5039757;28;20389;-80
2024/03/28 09:29:21;;;;;;;1.63;0.60;;;17.20;63.90;;;;;;5039806;28;20056;-80
2024/03/28 09:31:50;;;;;;;1.00;0.50;;;17.40;65.00;;;;;;5037650;28;20055;-80
2024/03/28 09:34:16;;;;;;;3.38;0.63;;;17.70;63.80;;;;;;5039138;28;20056;-80
2024/03/28 09:36:43;;;;;;;4.00;0.77;;;18.10;61.40;;;;;;5039523;28;20060;-80
2024/03/28 09:39:14;;;;;;;3.17;0.70;;;18.40;59.10;;;;;;5056439;28;20040;-80
2024/03/28 09:41:48;;;;;;;2.00;0.52;;;18.80;59.60;;;;;;5040323;28;20057;-81
2024/03/28 09:44:18;;;;;;;;;;;19.30;58.60;;;;;;5056171;28;20083;-80
2024/03/28 09:46:48;;;;;;;0.75;0.55;;;19.90;57.90;;;;;;5040358;28;20015;-80
2024/03/28 09:49:21;;;;;;;0.60;0.47;;;20.70;53.50;;;;;;5045155;28;20217;-81
2024/03/28 09:51:51;;;;;;;1.17;0.70;;;21.60;52.30;;;;;;5038094;28;20048;-81
2024/03/28 09:54:18;;;;;;;1.05;0.50;;;22.80;49.40;;;;;;5039893;28;20052;-81
2024/03/28 09:56:44;;;;;;;0.80;0.50;;;23.80;47.20;;;;;;5039671;28;20465;-81
2024/03/28 09:59:10;;;;;;;2.97;0.60;;;24.80;44.60;;;;;;5056085;28;20056;-81
2024/03/28 10:01:39;;;;;;;4.18;0.40;;;25.90;43.00;;;;;;5039889;28;20388;-81
2024/03/28 10:04:15;;;;;;;1.95;0.38;;;26.80;40.40;;;;;;5055867;28;20067;-81
2024/03/28 10:06:53;;;;;;;1.13;0.55;;;28.10;39.30;;;;;;5055932;28;20067;-81
2024/03/28 10:09:22;;;;;;;1.88;0.35;;;29.30;36.70;;;;;;5063503;28;20063;-81
2024/03/28 10:11:48;;;;;;;0.57;0.30;;;30.20;35.40;;;;;;5036405;28;20063;-82
2024/03/28 10:14:22;;;;;;;2.35;0.47;;;30.80;32.90;;;;;;5039371;28;20570;-81
2024/03/28 10:16:49;;;;;;;1.00;0.40;;;31.60;31.50;;;;;;5039424;28;20439;-81
2024/03/28 10:19:19;;;;;;;0.40;0.30;;;32.60;30.20;;;;;;5039554;28;20052;-80
2024/03/28 10:21:45;;;;;;;2.63;0.40;;;33.50;29.60;;;;;;5039413;28;20056;-81
2024/03/28 10:24:18;;;;;;;2.58;0.40;;;33.90;27.90;;;;;;5038796;28;20048;-82
2024/03/28 10:26:44;;;;;;;0.47;0.37;;;34.10;28.10;;;;;;5053812;28;20052;-82
2024/03/28 10:29:14;;;;;;;0.50;0.20;;;34.20;27.10;;;;;;5038227;28;20060;-81
2024/03/28 10:31:40;;;;;;;0.63;0.25;;;34.10;27.50;;;;;;5052017;28;20040;-81
2024/03/28 10:34:16;;;;;;;1.58;0.20;;;33.70;27.10;;;;;;5024358;28;20049;-83
2024/03/28 10:36:42;;;;;;;1.27;0.50;;;33.10;27.50;;;;;;5035677;28;20060;-82
2024/03/28 10:39:11;;;;;;;3.30;0.52;;;32.70;28.20;;;;;;5038758;28;20060;-83
2024/03/28 10:41:39;;;;;;;2.80;0.32;;;32.30;28.40;;;;;;5038791;28;20056;-81
2024/03/28 10:44:08;;;;;;;0.60;0.30;;;32.00;28.90;;;;;;5074399;28;20087;-81
2024/03/28 10:46:39;;;;;;;1.17;0.13;;;31.50;29.60;;;;;;5038687;28;20057;-82
2024/03/28 10:49:08;;;;;;;0.70;0.35;;;31.40;30.00;;;;;;5038970;28;20045;-81
2024/03/28 10:51:40;;;;;;;1.90;0.50;;;31.10;30.00;;;;;;5038362;28;20048;-81
2024/03/28 10:54:46;;;;;;;2.25;0.40;;;31.00;30.40;;;;;;5055080;28;20057;-82
2024/03/28 10:57:15;;;;;;;2.58;0.32;;;31.10;30.70;;;;;;4955964;28;20059;-83
2024/03/28 10:59:43;;;;;;;0.32;0.20;;;30.90;30.50;;;;;;5021893;28;20048;-82
2024/03/28 11:02:16;;;;;;;1.67;0.40;;;30.70;30.30;;;;;;5038380;28;20053;-82
2024/03/28 11:04:45;;;;;;;3.08;0.40;;;30.50;31.60;;;;;;5039053;28;20498;-82
2024/03/28 11:07:12;;;;;;;1.30;0.30;;;30.30;31.40;;;;;;5054903;28;20059;-81
2024/03/28 11:09:39;;;;;;;1.73;0.43;;;29.90;31.50;;;;;;5038275;28;20048;-82
2024/03/28 11:12:09;;;;;;;0.88;0.35;;;29.80;31.90;;;;;;5056849;28;20086;-80
2024/03/28 11:14:35;;;;;;;1.23;0.35;;;29.60;33.00;;;;;;5070480;28;20056;-82
2024/03/28 11:17:03;;;;;;;1.45;0.20;;;29.90;33.30;;;;;;5055004;28;20079;-82
2024/03/28 11:19:29;;;;;;;0.82;0.30;;;30.50;33.10;;;;;;5054561;28;20048;-81
2024/03/28 11:21:57;;;;;;;2.10;0.45;;;30.90;31.20;;;;;;5042758;28;20084;-82
2024/03/28 11:24:30;;;;;;;1.65;0.20;;;31.20;30.50;;;;;;5038320;28;20374;-81
2024/03/28 11:27:01;;;;;;;0.45;0.20;;;31.40;30.20;;;;;;5037848;28;20048;-82
2024/03/28 11:29:27;;;;;;;2.25;0.40;;;31.70;30.10;;;;;;5064093;28;20141;-82
2024/03/28 11:32:00;;;;;;;1.20;0.38;;;31.90;29.20;;;;;;5029296;28;20401;-82
2024/03/28 11:34:28;;;;;;;0.50;0.30;;;32.10;29.50;;;;;;5054037;28;20045;-81
2024/03/28 11:36:57;;;;;;;0.68;0.25;;;32.30;30.30;;;;;;5054335;28;20056;-83
2024/03/28 11:39:31;;;;;;;0.95;0.30;;;32.80;29.60;;;;;;5037802;28;20488;-81
2024/03/28 11:41:56;;;;;;;0.30;0.20;;;33.40;29.00;;;;;;5052587;28;20117;-82
2024/03/28 11:44:23;;;;;;;0.68;0.40;;;33.90;28.40;;;;;;5037541;28;20443;-82
2024/03/28 11:46:59;;;;;;;1.48;0.30;;;34.40;27.20;;;;;;5054273;28;20044;-81
2024/03/28 11:49:25;;;;;;;0.20;0.13;;;34.60;27.60;;;;;;5033722;28;20480;-82
2024/03/28 11:51:51;;;;;;;0.55;0.30;;;35.00;26.80;;;;;;5037552;28;20052;-82
2024/03/28 11:54:17;;;;;;;1.70;0.20;;;35.20;27.20;;;;;;5037002;28;20053;-82
2024/03/28 11:56:44;;;;;;;3.40;0.50;;;35.10;26.50;;;;;;5037059;28;20085;-82
2024/03/28 11:59:23;;;;;;;3.30;0.30;;;35.10;26.00;;;;;;5052548;28;20045;-82
2024/03/28 12:01:51;;;;;;;0.80;0.20;;;34.70;26.30;;;;;;5055101;28;20048;-78
2024/03/28 12:04:26;;;;;;;1.95;0.30;;;34.20;27.00;;;;;;5042553;28;20459;-78
2024/03/28 12:07:03;;;;;;;0.50;0.20;;;33.60;27.60;;;;;;5044756;28;20056;-81
2024/03/28 12:09:29;;;;;;;0.73;0.30;;;33.00;27.70;;;;;;5057180;28;20063;-80
2024/03/28 12:12:10;;;;;;;1.85;0.40;;;32.70;27.30;;;;;;5055508;28;20057;-80
2024/03/28 12:14:38;;;;;;;1.58;0.40;;;32.30;28.40;;;;;;5058236;28;20071;-80
2024/03/28 12:17:07;;;;;;;4.93;0.73;;;31.30;27.90;;;;;;5041808;28;20052;-81
2024/03/28 12:19:33;;;;;;;2.63;0.50;;;30.10;29.60;;;;;;5041662;28;20473;-81
2024/03/28 12:22:03;;;;;;;1.10;0.45;;;29.10;31.00;;;;;;5056360;28;20056;-81
2024/03/28 12:24:29;;;;;;;1.30;0.63;;;28.20;31.70;;;;;;5056741;28;20052;-81
2024/03/28 12:26:58;;;;;;;2.33;0.20;;;27.40;32.60;;;;;;5057586;28;20110;-82
2024/03/28 12:29:24;;;;;;;0.30;0.10;;;26.50;31.70;;;;;;5040885;28;20060;-81
2024/03/28 12:31:51;;;;;;;2.55;0.20;;;25.60;31.10;;;;;;5057899;28;20235;-80
2024/03/28 12:34:17;;;;;;;0.50;0.20;;;24.90;29.50;;;;;;5041336;28;20497;-81
2024/03/28 12:36:43;;;;;;;0.63;0.28;;;24.20;29.90;;;;;;5057796;28;20086;-80
2024/03/28 12:39:11;;;;;;;0.20;0.15;;;23.80;30.00;;;;;;5041206;28;20147;-81
2024/03/28 12:41:39;;;;;;;0.85;0.20;;;23.30;29.20;;;;;;5081664;28;20053;-81
2024/03/28 12:44:09;;;;;;;0.70;0.40;;;22.70;28.50;;;;;;5041528;28;20063;-81
2024/03/28 12:46:42;;;;;;;2.15;0.17;;;22.50;28.60;;;;;;5039286;28;20052;-81
2024/03/28 12:49:10;;;;;;;1.33;0.20;;;22.10;29.30;;;;;;5056570;28;20056;-81
2024/03/28 12:51:36;;;;;;;0.38;0.20;;;21.80;28.80;;;;;;5052687;28;20044;-81
2024/03/28 12:54:01;;;;;;;0.60;0.30;;;21.40;28.90;;;;;;5041263;28;20110;-81
2024/03/28 12:56:27;;;;;;;0.20;0.10;;;21.20;29.80;;;;;;5057113;28;20086;-81
2024/03/28 12:58:53;;;;;;;0.40;0.10;;;21.20;30.30;;;;;;5040777;28;20048;-80
2024/03/28 13:01:19;;;;;;;0.85;0.40;;;21.20;30.20;;;;;;5056376;28;20665;-80
2024/03/28 13:03:45;;;;;;;2.03;0.40;;;21.20;30.10;;;;;;5039609;28;20488;-80